Sarajevo, Bosnia and Herzegovina
Current Conditions -  °F | °C
As of 10:30 PM on Monday 26 Jan 2015 (Local Time) from LQSA Reporting Station
Overcast Overcast  
Wind Chill:   Ceiling: 3000
Heat Index:   Visibility: 5mi
Dew Point: -2°   Wind: 3mph
Humidity: 87%   Direction: 280°W
Pressure: 30.09"   Gusts: NA
Location:  43.85°N, 18.38°E
Report Text: LQSA 262030Z 28003KT 8000 FEW015 OVC030 M00/M02 Q1019
Loading
Personal Weather Stations






























Interactive Weather Map New forecast layout! Learn more

10-Day Weather Forecast

Advertisements
Track Severe Weather on mobile